sensor_id;sensor_type;location;lat;lon;timestamp;P1;durP1;ratioP1;P2;durP2;ratioP2
68176;SDS011;56478;50.982;7.032;2024-01-15T16:38:28;7.55;;;3.20;;
68176;SDS011;56478;50.982;7.032;2024-01-15T16:40:54;5.05;;;3.38;;
68176;SDS011;56478;50.982;7.032;2024-01-15T16:43:24;4.82;;;3.80;;
68176;SDS011;56478;50.982;7.032;2024-01-15T16:45:51;3.90;;;3.53;;
68176;SDS011;56478;50.982;7.032;2024-01-15T16:48:17;6.32;;;3.75;;
68176;SDS011;56478;50.982;7.032;2024-01-15T16:50:42;5.13;;;3.60;;
68176;SDS011;56478;50.982;7.032;2024-01-15T16:53:08;6.20;;;3.63;;
68176;SDS011;56478;50.982;7.032;2024-01-15T16:55:34;5.18;;;3.42;;
68176;SDS011;56478;50.982;7.032;2024-01-15T16:58:00;4.70;;;3.83;;
68176;SDS011;56478;50.982;7.032;2024-01-15T17:00:26;9.65;;;3.97;;
68176;SDS011;56478;50.982;7.032;2024-01-15T17:02:52;5.93;;;4.45;;
68176;SDS011;56478;50.982;7.032;2024-01-15T17:05:21;6.53;;;5.00;;
68176;SDS011;56478;50.982;7.032;2024-01-15T17:07:48;6.25;;;5.03;;
68176;SDS011;56478;50.982;7.032;2024-01-15T17:10:14;8.80;;;4.53;;
68176;SDS011;56478;50.982;7.032;2024-01-15T17:12:40;8.63;;;4.75;;
68176;SDS011;56478;50.982;7.032;2024-01-15T17:15:06;5.38;;;4.47;;
68176;SDS011;56478;50.982;7.032;2024-01-15T17:17:33;6.55;;;4.10;;
68176;SDS011;56478;50.982;7.032;2024-01-15T17:19:58;6.80;;;4.22;;
68176;SDS011;56478;50.982;7.032;2024-01-15T17:22:24;9.13;;;4.70;;
68176;SDS011;56478;50.982;7.032;2024-01-15T17:24:50;8.10;;;4.28;;
68176;SDS011;56478;50.982;7.032;2024-01-15T17:27:16;4.85;;;3.72;;
68176;SDS011;56478;50.982;7.032;2024-01-15T17:29:42;8.18;;;3.90;;
68176;SDS011;56478;50.982;7.032;2024-01-15T17:32:07;6.25;;;3.75;;
68176;SDS011;56478;50.982;7.032;2024-01-15T17:34:33;7.00;;;4.20;;
68176;SDS011;56478;50.982;7.032;2024-01-15T17:36:59;5.30;;;3.35;;
68176;SDS011;56478;50.982;7.032;2024-01-15T17:39:25;10.63;;;4.15;;
68176;SDS011;56478;50.982;7.032;2024-01-15T17:41:51;8.60;;;4.07;;
68176;SDS011;56478;50.982;7.032;2024-01-15T17:44:16;8.73;;;3.60;;
68176;SDS011;56478;50.982;7.032;2024-01-15T17:46:42;6.57;;;3.75;;
68176;SDS011;56478;50.982;7.032;2024-01-15T17:49:08;8.10;;;3.70;;
68176;SDS011;56478;50.982;7.032;2024-01-15T17:51:34;10.65;;;4.10;;
68176;SDS011;56478;50.982;7.032;2024-01-15T17:54:00;8.32;;;3.90;;
68176;SDS011;56478;50.982;7.032;2024-01-15T17:56:26;7.68;;;3.88;;
68176;SDS011;56478;50.982;7.032;2024-01-15T17:58:52;8.50;;;3.95;;
68176;SDS011;56478;50.982;7.032;2024-01-15T18:01:19;7.85;;;3.88;;
68176;SDS011;56478;50.982;7.032;2024-01-15T18:03:45;5.72;;;3.60;;
68176;SDS011;56478;50.982;7.032;2024-01-15T18:06:11;7.38;;;4.00;;
68176;SDS011;56478;50.982;7.032;2024-01-15T18:08:37;11.52;;;4.60;;
68176;SDS011;56478;50.982;7.032;2024-01-15T18:11:03;10.40;;;4.30;;
68176;SDS011;56478;50.982;7.032;2024-01-15T18:13:32;5.63;;;3.67;;
68176;SDS011;56478;50.982;7.032;2024-01-15T18:15:58;8.55;;;3.60;;
68176;SDS011;56478;50.982;7.032;2024-01-15T18:18:24;11.48;;;3.97;;
68176;SDS011;56478;50.982;7.032;2024-01-15T18:20:51;6.28;;;3.67;;
68176;SDS011;56478;50.982;7.032;2024-01-15T18:23:17;8.27;;;3.90;;
68176;SDS011;56478;50.982;7.032;2024-01-15T18:25:43;9.05;;;3.33;;
68176;SDS011;56478;50.982;7.032;2024-01-15T18:28:08;11.38;;;3.80;;
68176;SDS011;56478;50.982;7.032;2024-01-15T18:30:35;8.05;;;3.70;;
68176;SDS011;56478;50.982;7.032;2024-01-15T18:33:01;5.28;;;3.65;;
68176;SDS011;56478;50.982;7.032;2024-01-15T18:35:28;6.10;;;3.90;;
68176;SDS011;56478;50.982;7.032;2024-01-15T18:37:54;6.25;;;3.67;;
68176;SDS011;56478;50.982;7.032;2024-01-15T18:40:20;8.00;;;3.90;;
68176;SDS011;56478;50.982;7.032;2024-01-15T18:42:46;6.43;;;4.25;;
68176;SDS011;56478;50.982;7.032;2024-01-15T18:45:11;7.40;;;4.35;;
68176;SDS011;56478;50.982;7.032;2024-01-15T18:47:37;8.57;;;4.15;;
68176;SDS011;56478;50.982;7.032;2024-01-15T18:50:03;6.28;;;4.13;;
68176;SDS011;56478;50.982;7.032;2024-01-15T18:52:29;8.30;;;4.25;;
68176;SDS011;56478;50.982;7.032;2024-01-15T18:54:56;6.05;;;4.20;;
68176;SDS011;56478;50.982;7.032;2024-01-15T18:57:22;8.88;;;4.50;;
68176;SDS011;56478;50.982;7.032;2024-01-15T18:59:48;7.40;;;4.18;;
68176;SDS011;56478;50.982;7.032;2024-01-15T19:02:14;7.93;;;4.22;;
68176;SDS011;56478;50.982;7.032;2024-01-15T19:04:40;8.88;;;4.38;;
68176;SDS011;56478;50.982;7.032;2024-01-15T19:07:06;12.75;;;4.55;;
68176;SDS011;56478;50.982;7.032;2024-01-15T19:09:34;9.18;;;4.43;;
68176;SDS011;56478;50.982;7.032;2024-01-15T19:12:01;9.65;;;4.45;;
68176;SDS011;56478;50.982;7.032;2024-01-15T19:14:27;6.40;;;4.47;;
68176;SDS011;56478;50.982;7.032;2024-01-15T19:16:52;7.80;;;5.03;;
68176;SDS011;56478;50.982;7.032;2024-01-15T19:19:19;9.13;;;5.35;;
68176;SDS011;56478;50.982;7.032;2024-01-15T19:21:45;8.63;;;5.18;;
68176;SDS011;56478;50.982;7.032;2024-01-15T19:24:10;10.07;;;4.72;;
68176;SDS011;56478;50.982;7.032;2024-01-15T19:26:36;11.00;;;5.38;;
68176;SDS011;56478;50.982;7.032;2024-01-15T19:29:02;9.98;;;4.95;;
68176;SDS011;56478;50.982;7.032;2024-01-15T19:31:28;7.90;;;5.10;;
68176;SDS011;56478;50.982;7.032;2024-01-15T19:33:55;9.07;;;4.57;;
68176;SDS011;56478;50.982;7.032;2024-01-15T19:36:21;10.20;;;5.13;;
68176;SDS011;56478;50.982;7.032;2024-01-15T19:38:48;10.20;;;5.03;;
68176;SDS011;56478;50.982;7.032;2024-01-15T19:41:14;10.57;;;5.00;;
68176;SDS011;56478;50.982;7.032;2024-01-15T19:43:40;10.23;;;4.63;;
68176;SDS011;56478;50.982;7.032;2024-01-15T19:46:06;8.30;;;5.10;;
68176;SDS011;56478;50.982;7.032;2024-01-15T19:48:33;9.73;;;4.82;;
68176;SDS011;56478;50.982;7.032;2024-01-15T19:51:01;7.10;;;4.68;;
68176;SDS011;56478;50.982;7.032;2024-01-15T19:53:28;10.95;;;5.05;;
68176;SDS011;56478;50.982;7.032;2024-01-15T19:55:54;9.57;;;5.22;;
68176;SDS011;56478;50.982;7.032;2024-01-15T19:58:20;8.07;;;4.95;;
68176;SDS011;56478;50.982;7.032;2024-01-15T20:00:47;10.50;;;6.00;;
68176;SDS011;56478;50.982;7.032;2024-01-15T20:03:13;8.57;;;5.22;;
68176;SDS011;56478;50.982;7.032;2024-01-15T20:05:39;10.57;;;5.75;;
68176;SDS011;56478;50.982;7.032;2024-01-15T20:08:05;9.98;;;5.85;;
68176;SDS011;56478;50.982;7.032;2024-01-15T20:10:31;8.90;;;5.72;;
68176;SDS011;56478;50.982;7.032;2024-01-15T20:12:59;8.73;;;6.00;;
68176;SDS011;56478;50.982;7.032;2024-01-15T20:15:25;7.22;;;5.78;;
68176;SDS011;56478;50.982;7.032;2024-01-15T20:17:53;13.15;;;6.55;;
68176;SDS011;56478;50.982;7.032;2024-01-15T20:20:19;13.13;;;5.80;;
68176;SDS011;56478;50.982;7.032;2024-01-15T20:22:45;8.25;;;6.38;;
68176;SDS011;56478;50.982;7.032;2024-01-15T20:25:11;12.90;;;6.47;;
68176;SDS011;56478;50.982;7.032;2024-01-15T20:27:37;13.50;;;6.93;;
68176;SDS011;56478;50.982;7.032;2024-01-15T20:30:03;11.63;;;6.13;;
68176;SDS011;56478;50.982;7.032;2024-01-15T20:32:31;10.13;;;6.25;;
68176;SDS011;56478;50.982;7.032;2024-01-15T20:37:26;11.45;;;6.32;;
68176;SDS011;56478;50.982;7.032;2024-01-15T20:39:51;10.93;;;6.03;;
68176;SDS011;56478;50.982;7.032;2024-01-15T20:42:17;14.73;;;6.60;;
68176;SDS011;56478;50.982;7.032;2024-01-15T20:44:46;14.77;;;6.85;;
68176;SDS011;56478;50.982;7.032;2024-01-15T20:47:12;13.30;;;6.22;;
68176;SDS011;56478;50.982;7.032;2024-01-15T20:49:38;10.38;;;5.65;;
68176;SDS011;56478;50.982;7.032;2024-01-15T20:52:04;10.57;;;5.93;;
68176;SDS011;56478;50.982;7.032;2024-01-15T20:54:30;10.70;;;5.80;;
68176;SDS011;56478;50.982;7.032;2024-01-15T20:56:56;8.13;;;4.85;;
68176;SDS011;56478;50.982;7.032;2024-01-15T20:59:22;9.23;;;5.88;;
68176;SDS011;56478;50.982;7.032;2024-01-15T21:01:48;9.50;;;5.80;;
68176;SDS011;56478;50.982;7.032;2024-01-15T21:04:14;10.02;;;5.50;;
68176;SDS011;56478;50.982;7.032;2024-01-15T21:06:40;12.30;;;5.70;;
68176;SDS011;56478;50.982;7.032;2024-01-15T21:09:06;9.00;;;5.30;;
68176;SDS011;56478;50.982;7.032;2024-01-15T21:11:32;11.15;;;5.70;;
68176;SDS011;56478;50.982;7.032;2024-01-15T21:13:58;8.38;;;4.85;;
68176;SDS011;56478;50.982;7.032;2024-01-15T21:16:23;10.05;;;4.82;;
68176;SDS011;56478;50.982;7.032;2024-01-15T21:18:49;8.68;;;4.60;;
68176;SDS011;56478;50.982;7.032;2024-01-15T21:21:16;9.68;;;5.03;;
68176;SDS011;56478;50.982;7.032;2024-01-15T21:23:42;11.30;;;5.07;;
68176;SDS011;56478;50.982;7.032;2024-01-15T21:26:08;8.35;;;4.63;;
68176;SDS011;56478;50.982;7.032;2024-01-15T21:28:35;10.35;;;4.95;;
68176;SDS011;56478;50.982;7.032;2024-01-15T21:31:00;7.05;;;4.68;;
68176;SDS011;56478;50.982;7.032;2024-01-15T21:33:26;14.65;;;4.78;;
68176;SDS011;56478;50.982;7.032;2024-01-15T21:36:01;10.18;;;4.60;;
68176;SDS011;56478;50.982;7.032;2024-01-15T21:38:28;7.13;;;4.70;;
68176;SDS011;56478;50.982;7.032;2024-01-15T21:40:54;6.90;;;4.10;;
68176;SDS011;56478;50.982;7.032;2024-01-15T21:43:20;9.50;;;4.93;;
68176;SDS011;56478;50.982;7.032;2024-01-15T21:45:46;5.68;;;4.20;;
68176;SDS011;56478;50.982;7.032;2024-01-15T21:48:13;6.07;;;4.43;;
68176;SDS011;56478;50.982;7.032;2024-01-15T21:50:38;7.22;;;4.35;;
68176;SDS011;56478;50.982;7.032;2024-01-15T21:53:05;5.93;;;4.63;;
68176;SDS011;56478;50.982;7.032;2024-01-15T21:55:31;6.32;;;4.70;;
68176;SDS011;56478;50.982;7.032;2024-01-15T21:57:57;5.97;;;4.03;;
68176;SDS011;56478;50.982;7.032;2024-01-15T22:00:23;10.18;;;4.97;;
68176;SDS011;56478;50.982;7.032;2024-01-15T22:02:49;6.57;;;4.50;;
68176;SDS011;56478;50.982;7.032;2024-01-15T22:05:14;6.65;;;4.38;;
68176;SDS011;56478;50.982;7.032;2024-01-15T22:07:42;5.88;;;4.40;;
68176;SDS011;56478;50.982;7.032;2024-01-15T22:10:09;7.90;;;4.60;;
68176;SDS011;56478;50.982;7.032;2024-01-15T22:12:35;5.43;;;4.40;;
68176;SDS011;56478;50.982;7.032;2024-01-15T22:15:01;6.50;;;4.60;;
68176;SDS011;56478;50.982;7.032;2024-01-15T22:17:27;6.95;;;4.88;;
68176;SDS011;56478;50.982;7.032;2024-01-15T22:19:54;8.63;;;4.93;;
68176;SDS011;56478;50.982;7.032;2024-01-15T22:22:19;8.38;;;5.13;;
68176;SDS011;56478;50.982;7.032;2024-01-15T22:24:46;8.30;;;5.38;;
68176;SDS011;56478;50.982;7.032;2024-01-15T22:27:12;6.38;;;5.03;;
68176;SDS011;56478;50.982;7.032;2024-01-15T22:29:38;9.82;;;5.45;;
68176;SDS011;56478;50.982;7.032;2024-01-15T22:32:04;8.10;;;6.03;;
68176;SDS011;56478;50.982;7.032;2024-01-15T22:34:30;8.77;;;5.68;;
68176;SDS011;56478;50.982;7.032;2024-01-15T22:36:56;9.88;;;5.60;;
68176;SDS011;56478;50.982;7.032;2024-01-15T22:39:23;8.55;;;5.22;;
68176;SDS011;56478;50.982;7.032;2024-01-15T22:41:48;12.80;;;5.72;;
68176;SDS011;56478;50.982;7.032;2024-01-15T22:44:14;8.07;;;5.68;;
68176;SDS011;56478;50.982;7.032;2024-01-15T22:46:40;10.25;;;6.20;;
68176;SDS011;56478;50.982;7.032;2024-01-15T22:49:06;10.05;;;6.32;;
68176;SDS011;56478;50.982;7.032;2024-01-15T22:51:32;10.68;;;6.65;;
68176;SDS011;56478;50.982;7.032;2024-01-15T22:53:58;10.75;;;6.20;;
68176;SDS011;56478;50.982;7.032;2024-01-15T22:56:23;9.45;;;5.88;;
68176;SDS011;56478;50.982;7.032;2024-01-15T22:58:49;11.63;;;6.32;;
68176;SDS011;56478;50.982;7.032;2024-01-15T23:01:15;11.18;;;6.40;;
68176;SDS011;56478;50.982;7.032;2024-01-15T23:03:41;8.57;;;6.57;;
68176;SDS011;56478;50.982;7.032;2024-01-15T23:06:16;9.05;;;6.60;;
68176;SDS011;56478;50.982;7.032;2024-01-15T23:08:46;10.82;;;6.88;;
68176;SDS011;56478;50.982;7.032;2024-01-15T23:11:12;9.98;;;6.13;;
68176;SDS011;56478;50.982;7.032;2024-01-15T23:13:39;15.50;;;6.97;;
68176;SDS011;56478;50.982;7.032;2024-01-15T23:16:05;9.93;;;6.68;;
68176;SDS011;56478;50.982;7.032;2024-01-15T23:18:31;9.25;;;6.28;;
68176;SDS011;56478;50.982;7.032;2024-01-15T23:20:57;9.73;;;6.63;;
68176;SDS011;56478;50.982;7.032;2024-01-15T23:23:23;9.93;;;6.55;;
68176;SDS011;56478;50.982;7.032;2024-01-15T23:25:49;9.63;;;6.30;;
68176;SDS011;56478;50.982;7.032;2024-01-15T23:28:15;10.27;;;6.18;;
68176;SDS011;56478;50.982;7.032;2024-01-15T23:30:41;9.00;;;6.53;;
68176;SDS011;56478;50.982;7.032;2024-01-15T23:33:06;12.45;;;6.90;;
68176;SDS011;56478;50.982;7.032;2024-01-15T23:35:32;9.93;;;6.03;;
68176;SDS011;56478;50.982;7.032;2024-01-15T23:37:58;13.98;;;6.32;;
68176;SDS011;56478;50.982;7.032;2024-01-15T23:40:24;11.70;;;6.75;;
68176;SDS011;56478;50.982;7.032;2024-01-15T23:42:50;13.55;;;6.68;;
68176;SDS011;56478;50.982;7.032;2024-01-15T23:45:16;10.90;;;6.97;;
68176;SDS011;56478;50.982;7.032;2024-01-15T23:47:42;15.80;;;7.22;;
68176;SDS011;56478;50.982;7.032;2024-01-15T23:50:08;17.42;;;7.45;;
68176;SDS011;56478;50.982;7.032;2024-01-15T23:52:34;13.43;;;6.97;;
68176;SDS011;56478;50.982;7.032;2024-01-15T23:54:59;9.57;;;6.88;;
68176;SDS011;56478;50.982;7.032;2024-01-15T23:57:25;9.55;;;7.32;;
68176;SDS011;56478;50.982;7.032;2024-01-15T23:59:51;11.70;;;6.88;;
